createdAt,value
2019-05-03T00:01:52.796Z,93.50
2019-05-03T00:05:22.110Z,93.60
2019-05-03T00:08:44.737Z,93.30
2019-05-03T00:11:53.331Z,93.70
2019-05-03T00:15:12.006Z,93.40
2019-05-03T00:18:22.135Z,93.60
2019-05-03T00:21:32.582Z,93.30
2019-05-03T00:24:42.647Z,93.50
2019-05-03T00:27:52.752Z,94.30
2019-05-03T00:31:02.026Z,94.00
2019-05-03T00:34:14.109Z,93.90
2019-05-03T00:37:24.398Z,93.90
2019-05-03T00:40:33.062Z,93.70
2019-05-03T00:43:42.388Z,94.00
2019-05-03T00:46:51.769Z,93.90
2019-05-03T00:50:02.619Z,94.00
2019-05-03T00:53:12.474Z,94.10
2019-05-03T00:56:32.128Z,94.20
2019-05-03T00:59:42.014Z,94.10
2019-05-03T01:03:02.207Z,94.60
2019-05-03T01:06:11.594Z,94.20
2019-05-03T01:09:23.717Z,93.70
2019-05-03T01:12:32.572Z,94.00
2019-05-03T01:16:06.130Z,94.50
2019-05-03T01:19:14.802Z,94.40
2019-05-03T01:22:23.510Z,94.70
2019-05-03T01:25:35.326Z,94.90
2019-05-03T01:28:42.644Z,94.80
2019-05-03T01:31:52.815Z,95.00
2019-05-03T01:35:03.150Z,94.70
2019-05-03T01:38:11.901Z,94.90
2019-05-03T01:41:21.677Z,95.10
2019-05-03T01:44:42.624Z,95.00
2019-05-03T01:47:57.539Z,95.30
2019-05-03T01:51:22.816Z,95.40
2019-05-03T01:54:52.338Z,95.20
2019-05-03T01:58:01.924Z,95.60
2019-05-03T02:01:22.117Z,95.50
2019-05-03T02:04:39.156Z,95.70
2019-05-03T02:07:48.657Z,95.70
2019-05-03T02:11:07.890Z,95.30
2019-05-03T02:14:16.492Z,95.60
2019-05-03T02:17:26.684Z,95.30
2019-05-03T02:20:35.197Z,95.50
2019-05-03T02:23:43.857Z,95.30
2019-05-03T02:26:52.934Z,95.30
2019-05-03T02:30:03.088Z,95.40
2019-05-03T02:33:13.429Z,95.50
2019-05-03T02:36:23.183Z,95.60
2019-05-03T02:39:33.495Z,95.80
2019-05-03T02:42:46.426Z,95.90
2019-05-03T02:46:16.802Z,95.80
2019-05-03T02:49:56.217Z,95.80
2019-05-03T02:53:05.791Z,95.80
2019-05-03T02:56:25.977Z,95.80
2019-05-03T02:59:35.076Z,95.80
2019-05-03T03:02:45.619Z,96.10
2019-05-03T03:05:56.858Z,95.80
2019-05-03T03:09:07.026Z,95.80
2019-05-03T03:12:25.958Z,95.60
2019-05-03T03:15:36.310Z,95.60
2019-05-03T03:18:45.754Z,95.30
2019-05-03T03:21:58.347Z,95.20
2019-05-03T03:25:11.789Z,95.10
2019-05-03T03:28:25.134Z,95.30
2019-05-03T03:31:58.891Z,95.50
2019-05-03T03:36:29.141Z,96.00
2019-05-03T03:39:26.005Z,96.20
2019-05-03T03:42:36.055Z,96.10
2019-05-03T03:45:57.585Z,96.20
2019-05-03T03:49:07.180Z,96.00
2019-05-03T03:52:16.519Z,96.00
2019-05-03T03:55:37.650Z,95.90
2019-05-03T03:58:56.361Z,96.10
2019-05-03T04:02:06.032Z,96.30
2019-05-03T04:05:15.938Z,96.50
2019-05-03T04:08:35.999Z,96.30
2019-05-03T04:11:46.337Z,96.40
2019-05-03T04:15:08.445Z,96.60
2019-05-03T04:18:26.709Z,96.60
2019-05-03T04:21:35.994Z,96.60
2019-05-03T04:24:55.355Z,96.40
2019-05-03T04:28:16.180Z,96.40
2019-05-03T04:31:41.464Z,96.10
2019-05-03T04:34:50.141Z,96.20
2019-05-03T04:37:58.658Z,96.20
2019-05-03T04:41:07.285Z,96.00
2019-05-03T04:44:16.035Z,95.80
2019-05-03T04:47:26.273Z,95.60
2019-05-03T04:50:36.658Z,95.70
2019-05-03T04:53:50.047Z,95.60
2019-05-03T04:57:34.351Z,95.00
2019-05-03T05:00:27.297Z,95.20
2019-05-03T05:03:46.501Z,95.10
2019-05-03T05:06:55.552Z,94.80
2019-05-03T05:10:15.286Z,94.90
2019-05-03T05:13:24.999Z,94.50
2019-05-03T05:16:35.640Z,94.10
2019-05-03T05:19:49.727Z,94.30
2019-05-03T05:22:58.263Z,94.40
2019-05-03T05:26:19.872Z,94.10
2019-05-03T05:29:30.574Z,93.70
2019-05-03T05:32:39.164Z,93.70
2019-05-03T05:35:47.644Z,93.00
2019-05-03T05:38:56.292Z,92.40
2019-05-03T05:42:15.063Z,91.90
2019-05-03T05:45:24.587Z,90.90
2019-05-03T05:48:45.130Z,90.50
2019-05-03T05:51:54.990Z,90.20
2019-05-03T05:55:34.588Z,89.70
2019-05-03T05:58:51.459Z,88.70
2019-05-03T06:02:04.858Z,85.70
2019-05-03T06:05:14.818Z,85.10
2019-05-03T06:08:45.370Z,85.90
2019-05-03T06:11:58.073Z,84.10
2019-05-03T06:15:15.033Z,82.60
2019-05-03T06:18:29.435Z,81.90
2019-05-03T06:22:06.312Z,80.80
2019-05-03T06:25:27.829Z,81.00
2019-05-03T06:28:36.475Z,81.30
2019-05-03T06:32:02.733Z,81.40
2019-05-03T06:35:29.976Z,81.30
2019-05-03T06:38:48.862Z,82.30
2019-05-03T06:41:57.468Z,79.50
2019-05-03T06:45:11.552Z,79.70
2019-05-03T06:48:22.301Z,79.90
2019-05-03T06:51:28.308Z,80.30
2019-05-03T06:54:37.852Z,78.30
2019-05-03T06:57:56.978Z,77.70
2019-05-03T07:01:37.789Z,78.00
2019-05-03T07:04:48.814Z,77.30
2019-05-03T07:09:14.477Z,78.50
2019-05-03T07:12:24.896Z,78.20
2019-05-03T07:15:35.165Z,77.00
2019-05-03T07:18:45.476Z,75.00
2019-05-03T07:21:54.613Z,74.60
2019-05-03T07:25:04.683Z,75.20
2019-05-03T07:28:14.988Z,78.00
2019-05-03T07:31:25.523Z,78.40
2019-05-03T07:34:35.123Z,78.90
2019-05-03T07:37:45.106Z,79.20
2019-05-03T07:40:54.969Z,79.90
2019-05-03T07:44:05.331Z,82.30
2019-05-03T07:47:14.875Z,84.00
2019-05-03T07:50:25.593Z,88.20
2019-05-03T07:53:34.901Z,91.10
2019-05-03T07:56:48.837Z,91.10
2019-05-03T07:59:57.390Z,91.60
2019-05-03T08:03:17.926Z,89.10
2019-05-03T08:06:26.582Z,88.30
2019-05-03T08:09:35.246Z,86.70
2019-05-03T08:12:45.201Z,86.70
2019-05-03T08:15:55.793Z,85.60
2019-05-03T08:19:05.021Z,84.20
2019-05-03T08:22:14.966Z,84.10
2019-05-03T08:25:24.958Z,83.30
2019-05-03T08:28:34.673Z,81.10
2019-05-03T08:32:05.043Z,79.20
2019-05-03T08:35:38.905Z,76.20
2019-05-03T08:38:58.748Z,74.70
2019-05-03T08:42:11.338Z,75.20
2019-05-03T08:45:20.068Z,75.10
2019-05-03T08:48:38.872Z,74.40
2019-05-03T08:51:47.435Z,74.00
2019-05-03T08:54:56.038Z,73.90
2019-05-03T08:58:05.182Z,73.60
2019-05-03T09:01:14.871Z,73.00
2019-05-03T09:04:35.998Z,71.50
2019-05-03T09:07:35.537Z,71.40
2019-05-03T09:10:56.034Z,70.90
2019-05-03T09:14:07.179Z,71.10
2019-05-03T09:17:15.706Z,78.30
2019-05-03T09:20:25.095Z,84.10
2019-05-03T09:23:35.703Z,87.00
2019-05-03T09:26:55.553Z,85.30
2019-05-03T09:30:05.088Z,83.80
2019-05-03T09:33:24.860Z,82.50
2019-05-03T09:36:34.499Z,82.10
2019-05-03T09:39:44.554Z,82.70
2019-05-03T09:42:55.083Z,83.50
2019-05-03T09:46:05.140Z,82.30
2019-05-03T09:49:16.514Z,82.70
2019-05-03T09:52:24.971Z,82.20
2019-05-03T09:55:44.859Z,82.00
2019-05-03T09:58:55.692Z,81.40
2019-05-03T10:02:15.161Z,79.50
2019-05-03T10:05:25.475Z,79.10
2019-05-03T10:08:35.834Z,77.20
2019-05-03T10:11:45.921Z,72.80
2019-05-03T10:14:55.095Z,73.30
2019-05-03T10:18:10.576Z,71.80
2019-05-03T10:21:14.847Z,73.30
2019-05-03T10:24:23.565Z,74.20
2019-05-03T10:27:45.707Z,73.80
2019-05-03T10:30:54.824Z,71.80
2019-05-03T10:34:05.802Z,70.40
2019-05-03T10:37:30.683Z,72.30
2019-05-03T10:40:39.201Z,74.80
2019-05-03T10:43:47.928Z,67.50
2019-05-03T10:46:56.576Z,70.20
2019-05-03T10:50:05.547Z,64.60
2019-05-03T10:53:20.628Z,62.70
2019-05-03T10:56:58.359Z,65.40
2019-05-03T11:00:08.517Z,60.50
2019-05-03T11:03:17.344Z,61.40
2019-05-03T11:06:25.866Z,62.40
2019-05-03T11:09:49.497Z,63.00
2019-05-03T11:12:55.469Z,62.10
2019-05-03T11:16:14.852Z,62.70
2019-05-03T11:19:25.380Z,61.70
2019-05-03T11:22:34.968Z,61.80
2019-05-03T11:25:46.440Z,59.00
2019-05-03T11:29:00.557Z,58.40
2019-05-03T11:32:25.491Z,59.30
2019-05-03T11:35:58.718Z,60.30
2019-05-03T11:39:25.748Z,61.10
2019-05-03T11:42:35.343Z,62.30
2019-05-03T11:45:44.836Z,61.80
2019-05-03T11:48:54.930Z,64.60
2019-05-03T11:52:06.527Z,66.60
2019-05-03T11:55:16.210Z,68.70
2019-05-03T11:58:35.459Z,74.10
2019-05-03T12:02:09.260Z,72.80
2019-05-03T12:05:24.477Z,73.30
2019-05-03T12:08:34.630Z,72.60
2019-05-03T12:11:43.419Z,69.10
2019-05-03T12:14:52.031Z,67.50
2019-05-03T12:18:11.679Z,67.30
2019-05-03T12:21:31.890Z,66.00
2019-05-03T12:24:41.571Z,65.00
2019-05-03T12:27:50.650Z,64.70
2019-05-03T12:31:00.329Z,64.50
2019-05-03T12:34:08.945Z,64.10
2019-05-03T12:37:17.595Z,63.60
2019-05-03T12:40:26.242Z,62.20
2019-05-03T12:43:34.896Z,62.50
2019-05-03T12:46:44.987Z,63.80
2019-05-03T12:49:55.806Z,61.20
2019-05-03T12:53:04.965Z,59.40
2019-05-03T12:56:22.016Z,57.10
2019-05-03T12:59:42.123Z,55.40
2019-05-03T13:02:55.170Z,54.00
2019-05-03T13:06:07.158Z,54.20
2019-05-03T13:09:16.005Z,53.40
2019-05-03T13:12:26.367Z,52.90
2019-05-03T13:15:35.187Z,54.20
2019-05-03T13:18:45.805Z,56.30
2019-05-03T13:21:55.549Z,56.30
2019-05-03T13:25:05.254Z,57.80
2019-05-03T13:28:15.333Z,58.50
2019-05-03T13:31:25.092Z,59.10
2019-05-03T13:34:35.410Z,60.30
2019-05-03T13:37:45.237Z,58.40
2019-05-03T13:41:06.512Z,59.40
2019-05-03T13:44:16.224Z,60.30
2019-05-03T13:47:24.908Z,64.00
2019-05-03T13:50:35.130Z,64.80
2019-05-03T13:53:43.819Z,66.40
2019-05-03T13:56:52.443Z,68.10
2019-05-03T14:00:01.082Z,66.40
2019-05-03T14:03:09.892Z,66.50
2019-05-03T14:06:28.747Z,67.70
2019-05-03T14:09:37.442Z,67.60
2019-05-03T14:12:46.050Z,66.60
2019-05-03T14:15:54.870Z,64.80
2019-05-03T14:19:09.827Z,64.20
2019-05-03T14:22:17.554Z,64.30
2019-05-03T14:25:26.034Z,65.10
2019-05-03T14:28:34.689Z,65.50
2019-05-03T14:31:45.177Z,65.70
2019-05-03T14:34:54.778Z,65.80
2019-05-03T14:38:05.946Z,66.40
2019-05-03T14:41:25.400Z,64.90
2019-05-03T14:44:35.721Z,63.10
2019-05-03T14:47:44.494Z,62.90
2019-05-03T14:50:54.976Z,63.30
2019-05-03T14:54:05.317Z,62.40
2019-05-03T14:57:32.662Z,61.50
2019-05-03T15:01:08.740Z,60.80
2019-05-03T15:04:17.377Z,61.50
2019-05-03T15:07:26.585Z,62.90
2019-05-03T15:10:45.778Z,63.90
2019-05-03T15:14:05.651Z,63.70
2019-05-03T15:17:14.406Z,63.60
2019-05-03T15:20:25.279Z,63.50
2019-05-03T15:23:45.236Z,64.10
2019-05-03T15:26:55.400Z,63.10
2019-05-03T15:30:04.902Z,60.90
2019-05-03T15:33:15.134Z,58.90
2019-05-03T15:36:23.915Z,58.70
2019-05-03T15:39:45.024Z,58.70
2019-05-03T15:42:58.898Z,59.40
2019-05-03T15:46:26.537Z,59.20
2019-05-03T15:49:55.263Z,58.80
2019-05-03T15:53:04.404Z,58.80
2019-05-03T15:56:14.699Z,58.80
2019-05-03T15:59:24.406Z,58.30
2019-05-03T16:02:35.090Z,58.00
2019-05-03T16:05:44.710Z,57.50
2019-05-03T16:08:55.303Z,57.80
2019-05-03T16:12:05.091Z,58.00
2019-05-03T16:15:12.799Z,58.30
2019-05-03T16:18:21.406Z,59.10
2019-05-03T16:21:30.333Z,60.30
2019-05-03T16:24:38.963Z,60.10
2019-05-03T16:28:09.490Z,61.30
2019-05-03T16:31:20.730Z,61.60
2019-05-03T16:34:29.245Z,61.60
2019-05-03T16:37:37.735Z,61.70
2019-05-03T16:40:56.695Z,61.90
2019-05-03T16:44:05.350Z,62.30
2019-05-03T16:47:15.655Z,61.90
2019-05-03T16:50:25.081Z,61.60
2019-05-03T16:54:03.591Z,62.60
2019-05-03T16:57:12.110Z,63.60
2019-05-03T17:00:20.732Z,64.80
2019-05-03T17:03:40.810Z,65.00
2019-05-03T17:06:51.941Z,66.20
2019-05-03T17:10:34.726Z,65.70
2019-05-03T17:13:45.489Z,67.10
2019-05-03T17:16:53.302Z,68.20
2019-05-03T17:20:01.964Z,69.10
2019-05-03T17:23:10.739Z,69.90
2019-05-03T17:26:19.360Z,72.80
2019-05-03T17:29:38.271Z,76.60
2019-05-03T17:32:47.053Z,80.20
2019-05-03T17:35:55.713Z,83.50
2019-05-03T17:39:08.667Z,88.40
2019-05-03T17:42:25.320Z,89.90
2019-05-03T17:45:38.163Z,90.10
2019-05-03T17:48:46.711Z,90.40
2019-05-03T17:52:14.322Z,90.20
2019-05-03T17:55:40.030Z,90.30
2019-05-03T17:58:52.411Z,90.30
2019-05-03T18:02:36.606Z,90.30
2019-05-03T18:05:53.602Z,90.60
2019-05-03T18:09:39.293Z,90.80
2019-05-03T18:12:47.936Z,91.80
2019-05-03T18:15:56.506Z,92.10
2019-05-03T18:19:05.292Z,92.40
2019-05-03T18:22:15.326Z,92.20
2019-05-03T18:25:24.835Z,91.50
2019-05-03T18:28:44.724Z,91.30
2019-05-03T18:31:55.025Z,91.60
2019-05-03T18:35:04.858Z,91.70
2019-05-03T18:38:14.847Z,91.60
2019-05-03T18:41:25.414Z,91.10
2019-05-03T18:44:47.278Z,91.30
2019-05-03T18:47:55.852Z,91.30
2019-05-03T18:51:05.923Z,91.10
2019-05-03T18:54:15.620Z,91.00
2019-05-03T18:57:36.409Z,91.90
2019-05-03T19:00:45.328Z,93.20
2019-05-03T19:03:57.124Z,93.60
2019-05-03T19:07:07.377Z,95.20
2019-05-03T19:10:50.427Z,95.70
2019-05-03T19:14:04.549Z,96.60
2019-05-03T19:17:46.911Z,96.20
2019-05-03T19:20:55.459Z,96.40
2019-05-03T19:24:04.806Z,96.00
2019-05-03T19:27:13.548Z,95.80
2019-05-03T19:30:34.773Z,96.20
2019-05-03T19:33:45.558Z,96.70
2019-05-03T19:36:54.739Z,95.90
2019-05-03T19:40:03.508Z,96.80
2019-05-03T19:43:12.145Z,96.50
2019-05-03T19:46:20.745Z,96.20
2019-05-03T19:49:27.905Z,96.00
2019-05-03T19:52:56.997Z,96.20
2019-05-03T19:56:29.576Z,96.10
2019-05-03T19:59:56.972Z,95.80
2019-05-03T20:03:12.742Z,95.60
2019-05-03T20:06:44.994Z,95.40
2019-05-03T20:09:54.402Z,95.00
2019-05-03T20:13:04.609Z,95.10
2019-05-03T20:16:15.387Z,94.80
2019-05-03T20:19:25.582Z,94.60
2019-05-03T20:22:35.102Z,94.50
2019-05-03T20:25:43.972Z,94.50
2019-05-03T20:28:52.565Z,95.10
2019-05-03T20:32:30.877Z,94.80
2019-05-03T20:35:39.492Z,94.40
2019-05-03T20:38:48.069Z,94.60
2019-05-03T20:41:56.677Z,94.70
2019-05-03T20:45:08.944Z,94.60
2019-05-03T20:48:18.945Z,94.70
2019-05-03T20:51:27.509Z,95.00
2019-05-03T20:54:46.224Z,95.40
2019-05-03T20:57:55.046Z,95.60
2019-05-03T21:01:05.026Z,95.40
2019-05-03T21:04:15.332Z,95.90
2019-05-03T21:07:24.153Z,96.20
2019-05-03T21:10:32.678Z,96.20
2019-05-03T21:13:42.488Z,96.60
2019-05-03T21:17:40.958Z,96.60
2019-05-03T21:21:09.761Z,96.60
2019-05-03T21:24:26.076Z,97.10
2019-05-03T21:28:13.614Z,96.90
2019-05-03T21:31:22.139Z,97.20
2019-05-03T21:34:31.099Z,97.10
2019-05-03T21:37:39.607Z,97.60
2019-05-03T21:40:48.808Z,97.60
2019-05-03T21:43:57.368Z,97.60
2019-05-03T21:47:31.389Z,97.20
2019-05-03T21:50:41.155Z,97.40
2019-05-03T21:53:49.645Z,97.40
2019-05-03T21:57:00.136Z,97.40
2019-05-03T22:00:09.681Z,97.60
2019-05-03T22:03:18.179Z,97.60
2019-05-03T22:06:37.074Z,97.60
2019-05-03T22:09:45.672Z,97.70
2019-05-03T22:12:54.474Z,97.80
2019-05-03T22:16:15.382Z,97.80
2019-05-03T22:19:25.070Z,97.90
2019-05-03T22:22:55.967Z,97.80
2019-05-03T22:26:05.153Z,97.90
2019-05-03T22:29:14.392Z,98.00
2019-05-03T22:32:24.474Z,97.80
2019-05-03T22:35:36.080Z,97.90
2019-05-03T22:38:45.340Z,98.00
2019-05-03T22:41:53.986Z,98.00
2019-05-03T22:45:04.555Z,98.00
2019-05-03T22:48:14.565Z,98.70
2019-05-03T22:51:24.465Z,98.30
2019-05-03T22:54:34.596Z,97.80
2019-05-03T22:57:43.216Z,98.10
2019-05-03T23:01:02.107Z,98.20
2019-05-03T23:04:10.608Z,98.60
2019-05-03T23:07:19.417Z,98.20
2019-05-03T23:10:28.156Z,98.30
2019-05-03T23:13:36.669Z,98.30
2019-05-03T23:16:45.345Z,98.40
2019-05-03T23:19:58.336Z,98.50
2019-05-03T23:23:07.304Z,98.40
2019-05-03T23:26:34.823Z,98.50
2019-05-03T23:29:45.289Z,98.60
2019-05-03T23:32:54.748Z,98.60
2019-05-03T23:36:04.603Z,98.40
2019-05-03T23:39:14.492Z,98.60
2019-05-03T23:42:35.075Z,98.50
2019-05-03T23:45:45.286Z,98.50
2019-05-03T23:48:53.974Z,98.20
2019-05-03T23:52:08.094Z,98.20
2019-05-03T23:55:28.679Z,98.30
2019-05-03T23:58:38.514Z,98.10
